sensor_id;sensor_type;location;lat;lon;timestamp;P1;durP1;ratioP1;P2;durP2;ratioP2
71351;SDS011;59159;51.652;4.864;2022-09-09T00:04:45;2.60;;;0.70;;
71351;SDS011;59159;51.652;4.864;2022-09-09T00:09:52;2.92;;;0.73;;
71351;SDS011;59159;51.652;4.864;2022-09-09T00:15:29;3.38;;;0.82;;
71351;SDS011;59159;51.652;4.864;2022-09-09T00:18:02;4.15;;;0.80;;
71351;SDS011;59159;51.652;4.864;2022-09-09T00:20:32;3.40;;;0.68;;
71351;SDS011;59159;51.652;4.864;2022-09-09T00:25:33;3.13;;;0.85;;
71351;SDS011;59159;51.652;4.864;2022-09-09T00:28:01;5.22;;;0.88;;
71351;SDS011;59159;51.652;4.864;2022-09-09T00:30:31;3.77;;;0.83;;
71351;SDS011;59159;51.652;4.864;2022-09-09T00:33:00;4.38;;;0.70;;
71351;SDS011;59159;51.652;4.864;2022-09-09T00:35:34;2.90;;;0.80;;
71351;SDS011;59159;51.652;4.864;2022-09-09T00:38:15;3.67;;;0.80;;
71351;SDS011;59159;51.652;4.864;2022-09-09T00:40:52;2.63;;;0.60;;
71351;SDS011;59159;51.652;4.864;2022-09-09T00:43:28;3.47;;;0.80;;
71351;SDS011;59159;51.652;4.864;2022-09-09T00:56:41;3.30;;;0.70;;
71351;SDS011;59159;51.652;4.864;2022-09-09T00:59:16;3.03;;;0.63;;
71351;SDS011;59159;51.652;4.864;2022-09-09T01:01:45;3.80;;;0.70;;
71351;SDS011;59159;51.652;4.864;2022-09-09T01:04:16;2.97;;;0.80;;
71351;SDS011;59159;51.652;4.864;2022-09-09T01:06:46;4.00;;;1.00;;
71351;SDS011;59159;51.652;4.864;2022-09-09T01:09:24;3.45;;;0.70;;
71351;SDS011;59159;51.652;4.864;2022-09-09T01:17:05;3.78;;;0.77;;
71351;SDS011;59159;51.652;4.864;2022-09-09T01:25:09;3.65;;;0.70;;
71351;SDS011;59159;51.652;4.864;2022-09-09T01:27:38;3.40;;;0.80;;
71351;SDS011;59159;51.652;4.864;2022-09-09T01:30:11;3.27;;;0.80;;
71351;SDS011;59159;51.652;4.864;2022-09-09T01:32:49;2.40;;;0.60;;
71351;SDS011;59159;51.652;4.864;2022-09-09T01:37:44;3.25;;;0.95;;
71351;SDS011;59159;51.652;4.864;2022-09-09T01:40:10;4.00;;;0.80;;
71351;SDS011;59159;51.652;4.864;2022-09-09T01:42:36;3.95;;;0.80;;
71351;SDS011;59159;51.652;4.864;2022-09-09T01:45:02;4.25;;;0.98;;
71351;SDS011;59159;51.652;4.864;2022-09-09T01:47:29;3.57;;;0.70;;
71351;SDS011;59159;51.652;4.864;2022-09-09T01:49:55;3.05;;;0.70;;
71351;SDS011;59159;51.652;4.864;2022-09-09T01:52:21;3.28;;;0.60;;
71351;SDS011;59159;51.652;4.864;2022-09-09T01:54:48;3.70;;;0.80;;
71351;SDS011;59159;51.652;4.864;2022-09-09T01:57:25;2.65;;;0.70;;
71351;SDS011;59159;51.652;4.864;2022-09-09T02:05:26;3.50;;;0.70;;
71351;SDS011;59159;51.652;4.864;2022-09-09T02:08:16;2.95;;;0.93;;
71351;SDS011;59159;51.652;4.864;2022-09-09T02:10:53;3.13;;;0.68;;
71351;SDS011;59159;51.652;4.864;2022-09-09T02:13:21;3.33;;;0.80;;
71351;SDS011;59159;51.652;4.864;2022-09-09T02:16:04;2.85;;;0.60;;
71351;SDS011;59159;51.652;4.864;2022-09-09T02:19:18;3.80;;;0.90;;
71351;SDS011;59159;51.652;4.864;2022-09-09T02:21:19;2.90;;;0.60;;
71351;SDS011;59159;51.652;4.864;2022-09-09T02:23:47;3.55;;;0.80;;
71351;SDS011;59159;51.652;4.864;2022-09-09T02:26:14;4.82;;;0.90;;
71351;SDS011;59159;51.652;4.864;2022-09-09T02:28:45;3.28;;;0.70;;
71351;SDS011;59159;51.652;4.864;2022-09-09T02:31:11;2.30;;;0.63;;
71351;SDS011;59159;51.652;4.864;2022-09-09T02:33:41;4.25;;;0.70;;
71351;SDS011;59159;51.652;4.864;2022-09-09T02:36:08;4.00;;;0.60;;
71351;SDS011;59159;51.652;4.864;2022-09-09T02:38:36;3.70;;;0.77;;
71351;SDS011;59159;51.652;4.864;2022-09-09T02:41:03;2.45;;;0.85;;
71351;SDS011;59159;51.652;4.864;2022-09-09T02:43:33;2.83;;;0.80;;
71351;SDS011;59159;51.652;4.864;2022-09-09T02:46:03;2.60;;;0.77;;
71351;SDS011;59159;51.652;4.864;2022-09-09T02:53:59;3.78;;;0.80;;
71351;SDS011;59159;51.652;4.864;2022-09-09T02:56:30;3.80;;;0.70;;
71351;SDS011;59159;51.652;4.864;2022-09-09T02:58:58;3.53;;;0.65;;
71351;SDS011;59159;51.652;4.864;2022-09-09T03:01:24;2.33;;;0.60;;
71351;SDS011;59159;51.652;4.864;2022-09-09T03:03:50;2.70;;;0.50;;
71351;SDS011;59159;51.652;4.864;2022-09-09T03:06:16;3.50;;;0.70;;
71351;SDS011;59159;51.652;4.864;2022-09-09T03:08:42;2.85;;;0.70;;
71351;SDS011;59159;51.652;4.864;2022-09-09T03:11:08;4.13;;;0.60;;
71351;SDS011;59159;51.652;4.864;2022-09-09T03:13:34;2.58;;;0.80;;
71351;SDS011;59159;51.652;4.864;2022-09-09T03:16:00;3.35;;;0.70;;
71351;SDS011;59159;51.652;4.864;2022-09-09T03:18:26;3.28;;;0.75;;
71351;SDS011;59159;51.652;4.864;2022-09-09T03:20:53;3.57;;;0.80;;
71351;SDS011;59159;51.652;4.864;2022-09-09T03:23:19;3.17;;;0.70;;
71351;SDS011;59159;51.652;4.864;2022-09-09T03:25:47;2.80;;;0.60;;
71351;SDS011;59159;51.652;4.864;2022-09-09T03:28:13;3.13;;;0.93;;
71351;SDS011;59159;51.652;4.864;2022-09-09T03:30:40;4.05;;;0.80;;
71351;SDS011;59159;51.652;4.864;2022-09-09T03:33:06;2.92;;;0.98;;
71351;SDS011;59159;51.652;4.864;2022-09-09T03:35:32;3.33;;;0.70;;
71351;SDS011;59159;51.652;4.864;2022-09-09T03:37:58;4.40;;;0.77;;
71351;SDS011;59159;51.652;4.864;2022-09-09T03:40:25;2.25;;;0.52;;
71351;SDS011;59159;51.652;4.864;2022-09-09T03:42:51;2.33;;;0.60;;
71351;SDS011;59159;51.652;4.864;2022-09-09T03:45:17;4.27;;;0.70;;
71351;SDS011;59159;51.652;4.864;2022-09-09T03:47:43;3.75;;;0.80;;
71351;SDS011;59159;51.652;4.864;2022-09-09T03:50:09;4.28;;;0.80;;
71351;SDS011;59159;51.652;4.864;2022-09-09T03:52:39;2.77;;;0.50;;
71351;SDS011;59159;51.652;4.864;2022-09-09T03:55:06;3.17;;;0.90;;
71351;SDS011;59159;51.652;4.864;2022-09-09T03:57:32;4.03;;;0.63;;
71351;SDS011;59159;51.652;4.864;2022-09-09T04:00:00;3.60;;;0.80;;
71351;SDS011;59159;51.652;4.864;2022-09-09T04:02:26;3.67;;;0.60;;
71351;SDS011;59159;51.652;4.864;2022-09-09T04:04:52;3.97;;;0.75;;
71351;SDS011;59159;51.652;4.864;2022-09-09T04:07:18;3.17;;;0.90;;
71351;SDS011;59159;51.652;4.864;2022-09-09T04:09:44;2.20;;;0.70;;
71351;SDS011;59159;51.652;4.864;2022-09-09T04:12:10;3.38;;;0.90;;
71351;SDS011;59159;51.652;4.864;2022-09-09T04:14:38;2.85;;;0.80;;
71351;SDS011;59159;51.652;4.864;2022-09-09T04:17:04;2.90;;;0.80;;
71351;SDS011;59159;51.652;4.864;2022-09-09T04:19:31;2.65;;;0.88;;
71351;SDS011;59159;51.652;4.864;2022-09-09T04:21:57;3.50;;;0.77;;
71351;SDS011;59159;51.652;4.864;2022-09-09T04:24:24;2.37;;;0.70;;
71351;SDS011;59159;51.652;4.864;2022-09-09T04:26:52;2.25;;;0.60;;
71351;SDS011;59159;51.652;4.864;2022-09-09T04:29:19;2.40;;;0.60;;
71351;SDS011;59159;51.652;4.864;2022-09-09T04:31:45;2.97;;;0.70;;
71351;SDS011;59159;51.652;4.864;2022-09-09T04:34:11;4.47;;;0.90;;
71351;SDS011;59159;51.652;4.864;2022-09-09T04:36:37;3.72;;;0.90;;
71351;SDS011;59159;51.652;4.864;2022-09-09T04:39:04;3.50;;;0.80;;
71351;SDS011;59159;51.652;4.864;2022-09-09T04:41:30;3.53;;;0.87;;
71351;SDS011;59159;51.652;4.864;2022-09-09T04:43:56;3.00;;;0.65;;
71351;SDS011;59159;51.652;4.864;2022-09-09T04:46:22;2.67;;;0.60;;
71351;SDS011;59159;51.652;4.864;2022-09-09T04:48:49;3.13;;;0.73;;
71351;SDS011;59159;51.652;4.864;2022-09-09T04:51:15;5.07;;;0.80;;
71351;SDS011;59159;51.652;4.864;2022-09-09T04:53:41;4.72;;;1.10;;
71351;SDS011;59159;51.652;4.864;2022-09-09T04:56:09;6.25;;;1.70;;
71351;SDS011;59159;51.652;4.864;2022-09-09T04:58:35;6.53;;;1.20;;
71351;SDS011;59159;51.652;4.864;2022-09-09T05:01:05;8.02;;;1.60;;
71351;SDS011;59159;51.652;4.864;2022-09-09T05:03:31;4.53;;;1.05;;
71351;SDS011;59159;51.652;4.864;2022-09-09T05:06:07;6.00;;;1.10;;
71351;SDS011;59159;51.652;4.864;2022-09-09T05:08:35;6.60;;;1.20;;
71351;SDS011;59159;51.652;4.864;2022-09-09T05:11:01;7.47;;;1.25;;
71351;SDS011;59159;51.652;4.864;2022-09-09T05:13:28;9.87;;;1.50;;
71351;SDS011;59159;51.652;4.864;2022-09-09T05:15:56;7.22;;;1.33;;
71351;SDS011;59159;51.652;4.864;2022-09-09T05:18:22;8.43;;;1.20;;
71351;SDS011;59159;51.652;4.864;2022-09-09T05:20:49;7.40;;;1.20;;
71351;SDS011;59159;51.652;4.864;2022-09-09T05:23:16;5.53;;;1.10;;
71351;SDS011;59159;51.652;4.864;2022-09-09T05:25:42;4.43;;;1.00;;
71351;SDS011;59159;51.652;4.864;2022-09-09T05:28:08;8.32;;;1.10;;
71351;SDS011;59159;51.652;4.864;2022-09-09T05:30:36;5.97;;;1.10;;
71351;SDS011;59159;51.652;4.864;2022-09-09T05:33:02;5.95;;;1.08;;
71351;SDS011;59159;51.652;4.864;2022-09-09T05:35:28;7.00;;;1.33;;
71351;SDS011;59159;51.652;4.864;2022-09-09T05:37:58;4.83;;;1.00;;
71351;SDS011;59159;51.652;4.864;2022-09-09T05:40:25;5.20;;;1.10;;
71351;SDS011;59159;51.652;4.864;2022-09-09T05:42:51;7.32;;;1.10;;
71351;SDS011;59159;51.652;4.864;2022-09-09T05:45:18;4.10;;;0.95;;
71351;SDS011;59159;51.652;4.864;2022-09-09T05:47:44;5.23;;;0.83;;
71351;SDS011;59159;51.652;4.864;2022-09-09T05:50:10;4.75;;;1.33;;
71351;SDS011;59159;51.652;4.864;2022-09-09T05:52:37;4.30;;;1.13;;
71351;SDS011;59159;51.652;4.864;2022-09-09T05:55:04;6.93;;;1.23;;
71351;SDS011;59159;51.652;4.864;2022-09-09T05:57:30;4.35;;;0.93;;
71351;SDS011;59159;51.652;4.864;2022-09-09T05:59:56;4.72;;;1.10;;
71351;SDS011;59159;51.652;4.864;2022-09-09T06:02:22;4.43;;;1.13;;
71351;SDS011;59159;51.652;4.864;2022-09-09T06:04:48;4.10;;;1.02;;
71351;SDS011;59159;51.652;4.864;2022-09-09T06:07:14;5.28;;;1.00;;
71351;SDS011;59159;51.652;4.864;2022-09-09T06:09:40;4.38;;;0.90;;
71351;SDS011;59159;51.652;4.864;2022-09-09T06:12:06;4.70;;;1.10;;
71351;SDS011;59159;51.652;4.864;2022-09-09T06:14:32;4.68;;;0.90;;
71351;SDS011;59159;51.652;4.864;2022-09-09T06:16:58;4.72;;;1.13;;
71351;SDS011;59159;51.652;4.864;2022-09-09T06:19:24;5.60;;;1.07;;
71351;SDS011;59159;51.652;4.864;2022-09-09T06:21:51;6.75;;;1.08;;
71351;SDS011;59159;51.652;4.864;2022-09-09T06:24:17;5.10;;;0.90;;
71351;SDS011;59159;51.652;4.864;2022-09-09T06:26:44;3.53;;;0.80;;
71351;SDS011;59159;51.652;4.864;2022-09-09T06:29:11;4.85;;;0.95;;
71351;SDS011;59159;51.652;4.864;2022-09-09T06:31:37;4.93;;;0.70;;
71351;SDS011;59159;51.652;4.864;2022-09-09T06:34:06;5.78;;;0.98;;
71351;SDS011;59159;51.652;4.864;2022-09-09T06:36:34;5.50;;;0.80;;
71351;SDS011;59159;51.652;4.864;2022-09-09T06:39:01;3.88;;;0.80;;
71351;SDS011;59159;51.652;4.864;2022-09-09T06:41:29;3.78;;;0.85;;
71351;SDS011;59159;51.652;4.864;2022-09-09T06:43:55;4.83;;;0.93;;
71351;SDS011;59159;51.652;4.864;2022-09-09T06:46:22;4.65;;;1.65;;
71351;SDS011;59159;51.652;4.864;2022-09-09T06:48:48;4.78;;;0.90;;
71351;SDS011;59159;51.652;4.864;2022-09-09T06:51:15;4.77;;;0.97;;
71351;SDS011;59159;51.652;4.864;2022-09-09T06:53:42;4.75;;;0.75;;
71351;SDS011;59159;51.652;4.864;2022-09-09T06:58:35;6.28;;;0.90;;
71351;SDS011;59159;51.652;4.864;2022-09-09T07:01:02;5.67;;;1.00;;
71351;SDS011;59159;51.652;4.864;2022-09-09T07:03:28;4.53;;;0.80;;
71351;SDS011;59159;51.652;4.864;2022-09-09T07:05:55;5.57;;;1.00;;
71351;SDS011;59159;51.652;4.864;2022-09-09T07:08:21;5.00;;;0.97;;
71351;SDS011;59159;51.652;4.864;2022-09-09T07:10:47;6.72;;;1.02;;
71351;SDS011;59159;51.652;4.864;2022-09-09T07:13:14;4.55;;;0.73;;
71351;SDS011;59159;51.652;4.864;2022-09-09T07:15:40;10.47;;;1.20;;
71351;SDS011;59159;51.652;4.864;2022-09-09T07:18:07;5.32;;;0.98;;
71351;SDS011;59159;51.652;4.864;2022-09-09T07:20:35;4.50;;;0.88;;
71351;SDS011;59159;51.652;4.864;2022-09-09T07:23:01;3.83;;;0.82;;
71351;SDS011;59159;51.652;4.864;2022-09-09T07:25:27;3.93;;;0.80;;
71351;SDS011;59159;51.652;4.864;2022-09-09T07:27:55;5.25;;;1.02;;
71351;SDS011;59159;51.652;4.864;2022-09-09T07:30:21;3.10;;;0.82;;
71351;SDS011;59159;51.652;4.864;2022-09-09T07:32:47;5.57;;;1.00;;
71351;SDS011;59159;51.652;4.864;2022-09-09T07:35:13;6.63;;;1.30;;
71351;SDS011;59159;51.652;4.864;2022-09-09T07:37:39;7.13;;;1.50;;
71351;SDS011;59159;51.652;4.864;2022-09-09T07:40:06;4.87;;;1.00;;
71351;SDS011;59159;51.652;4.864;2022-09-09T07:42:32;6.18;;;1.30;;
71351;SDS011;59159;51.652;4.864;2022-09-09T07:44:58;5.82;;;1.17;;
71351;SDS011;59159;51.652;4.864;2022-09-09T07:47:24;6.72;;;1.42;;
71351;SDS011;59159;51.652;4.864;2022-09-09T07:49:50;9.30;;;1.43;;
71351;SDS011;59159;51.652;4.864;2022-09-09T07:52:16;6.68;;;1.30;;
71351;SDS011;59159;51.652;4.864;2022-09-09T07:54:42;8.70;;;1.40;;
71351;SDS011;59159;51.652;4.864;2022-09-09T07:57:08;8.93;;;1.37;;
71351;SDS011;59159;51.652;4.864;2022-09-09T07:59:34;6.00;;;1.40;;
71351;SDS011;59159;51.652;4.864;2022-09-09T08:02:00;9.43;;;1.35;;
71351;SDS011;59159;51.652;4.864;2022-09-09T08:04:26;5.47;;;1.30;;
71351;SDS011;59159;51.652;4.864;2022-09-09T08:06:57;10.40;;;1.65;;
71351;SDS011;59159;51.652;4.864;2022-09-09T08:09:23;8.27;;;1.98;;
71351;SDS011;59159;51.652;4.864;2022-09-09T08:11:54;8.95;;;1.60;;
71351;SDS011;59159;51.652;4.864;2022-09-09T08:14:21;6.17;;;1.03;;
71351;SDS011;59159;51.652;4.864;2022-09-09T08:16:48;6.47;;;1.30;;
71351;SDS011;59159;51.652;4.864;2022-09-09T08:19:15;6.00;;;1.70;;
71351;SDS011;59159;51.652;4.864;2022-09-09T08:21:41;7.07;;;1.20;;
71351;SDS011;59159;51.652;4.864;2022-09-09T08:24:08;7.55;;;1.60;;
71351;SDS011;59159;51.652;4.864;2022-09-09T08:26:36;9.75;;;1.98;;
71351;SDS011;59159;51.652;4.864;2022-09-09T08:29:03;5.40;;;1.37;;
71351;SDS011;59159;51.652;4.864;2022-09-09T08:31:31;7.70;;;1.20;;
71351;SDS011;59159;51.652;4.864;2022-09-09T08:33:58;8.07;;;1.60;;
71351;SDS011;59159;51.652;4.864;2022-09-09T08:36:25;9.43;;;1.60;;
71351;SDS011;59159;51.652;4.864;2022-09-09T08:38:52;5.17;;;1.20;;
71351;SDS011;59159;51.652;4.864;2022-09-09T08:43:51;6.82;;;1.70;;
71351;SDS011;59159;51.652;4.864;2022-09-09T08:46:40;5.63;;;1.10;;
71351;SDS011;59159;51.652;4.864;2022-09-09T08:49:27;5.97;;;1.40;;
71351;SDS011;59159;51.652;4.864;2022-09-09T08:51:54;8.60;;;1.52;;
71351;SDS011;59159;51.652;4.864;2022-09-09T08:54:22;7.83;;;1.27;;
71351;SDS011;59159;51.652;4.864;2022-09-09T08:56:48;7.57;;;1.27;;
71351;SDS011;59159;51.652;4.864;2022-09-09T08:59:16;8.45;;;1.33;;
71351;SDS011;59159;51.652;4.864;2022-09-09T09:09:20;6.80;;;1.23;;
71351;SDS011;59159;51.652;4.864;2022-09-09T09:11:50;7.90;;;1.30;;
71351;SDS011;59159;51.652;4.864;2022-09-09T09:14:18;7.60;;;1.35;;
71351;SDS011;59159;51.652;4.864;2022-09-09T09:17:21;7.95;;;1.85;;
71351;SDS011;59159;51.652;4.864;2022-09-09T09:19:40;6.73;;;2.20;;
71351;SDS011;59159;51.652;4.864;2022-09-09T09:25:01;6.47;;;1.20;;
71351;SDS011;59159;51.652;4.864;2022-09-09T09:27:33;6.95;;;1.50;;
71351;SDS011;59159;51.652;4.864;2022-09-09T09:30:02;9.70;;;1.33;;
71351;SDS011;59159;51.652;4.864;2022-09-09T09:32:30;7.00;;;1.27;;
71351;SDS011;59159;51.652;4.864;2022-09-09T09:34:57;10.18;;;1.65;;
71351;SDS011;59159;51.652;4.864;2022-09-09T09:37:34;6.37;;;1.03;;
71351;SDS011;59159;51.652;4.864;2022-09-09T09:40:14;7.47;;;1.48;;
71351;SDS011;59159;51.652;4.864;2022-09-09T09:42:53;7.85;;;1.30;;
71351;SDS011;59159;51.652;4.864;2022-09-09T09:48:13;7.30;;;1.27;;
71351;SDS011;59159;51.652;4.864;2022-09-09T09:50:46;7.50;;;1.38;;
71351;SDS011;59159;51.652;4.864;2022-09-09T09:53:19;7.65;;;1.30;;
71351;SDS011;59159;51.652;4.864;2022-09-09T09:56:02;5.57;;;1.40;;
71351;SDS011;59159;51.652;4.864;2022-09-09T09:58:30;6.15;;;1.00;;
71351;SDS011;59159;51.652;4.864;2022-09-09T10:00:58;4.45;;;1.00;;
71351;SDS011;59159;51.652;4.864;2022-09-09T10:05:51;7.28;;;1.20;;
71351;SDS011;59159;51.652;4.864;2022-09-09T10:08:17;8.27;;;1.50;;
71351;SDS011;59159;51.652;4.864;2022-09-09T10:13:26;4.47;;;1.00;;
71351;SDS011;59159;51.652;4.864;2022-09-09T10:18:22;4.55;;;0.90;;
71351;SDS011;59159;51.652;4.864;2022-09-09T10:28:56;4.53;;;0.70;;
71351;SDS011;59159;51.652;4.864;2022-09-09T10:36:52;3.70;;;1.17;;
71351;SDS011;59159;51.652;4.864;2022-09-09T10:44:23;3.25;;;0.80;;
71351;SDS011;59159;51.652;4.864;2022-09-09T10:47:38;4.83;;;0.93;;
71351;SDS011;59159;51.652;4.864;2022-09-09T10:59:55;4.82;;;1.08;;
71351;SDS011;59159;51.652;4.864;2022-09-09T11:02:27;4.33;;;0.80;;
71351;SDS011;59159;51.652;4.864;2022-09-09T11:07:56;4.20;;;0.75;;
71351;SDS011;59159;51.652;4.864;2022-09-09T11:12:57;6.37;;;0.90;;
71351;SDS011;59159;51.652;4.864;2022-09-09T11:15:29;4.40;;;0.70;;
71351;SDS011;59159;51.652;4.864;2022-09-09T11:17:58;4.65;;;0.98;;
71351;SDS011;59159;51.652;4.864;2022-09-09T11:20:25;4.23;;;0.87;;
71351;SDS011;59159;51.652;4.864;2022-09-09T11:25:21;4.03;;;0.65;;
71351;SDS011;59159;51.652;4.864;2022-09-09T11:27:51;5.00;;;1.10;;
71351;SDS011;59159;51.652;4.864;2022-09-09T11:30:43;5.10;;;0.80;;
71351;SDS011;59159;51.652;4.864;2022-09-09T11:40:56;4.15;;;1.15;;
71351;SDS011;59159;51.652;4.864;2022-09-09T11:43:25;4.20;;;0.80;;
71351;SDS011;59159;51.652;4.864;2022-09-09T11:45:53;5.03;;;0.90;;
71351;SDS011;59159;51.652;4.864;2022-09-09T11:48:23;5.13;;;1.33;;
71351;SDS011;59159;51.652;4.864;2022-09-09T11:50:58;4.53;;;0.90;;
71351;SDS011;59159;51.652;4.864;2022-09-09T11:53:25;5.53;;;1.10;;
71351;SDS011;59159;51.652;4.864;2022-09-09T11:56:04;4.22;;;0.90;;
71351;SDS011;59159;51.652;4.864;2022-09-09T11:58:36;6.00;;;0.93;;
71351;SDS011;59159;51.652;4.864;2022-09-09T12:01:12;4.80;;;0.93;;
71351;SDS011;59159;51.652;4.864;2022-09-09T12:03:43;5.23;;;1.00;;
71351;SDS011;59159;51.652;4.864;2022-09-09T12:06:25;4.07;;;1.00;;
71351;SDS011;59159;51.652;4.864;2022-09-09T12:08:53;3.47;;;0.88;;
71351;SDS011;59159;51.652;4.864;2022-09-09T12:11:24;5.00;;;1.03;;
71351;SDS011;59159;51.652;4.864;2022-09-09T12:13:54;3.58;;;0.90;;
71351;SDS011;59159;51.652;4.864;2022-09-09T12:16:28;3.10;;;0.80;;
71351;SDS011;59159;51.652;4.864;2022-09-09T12:19:02;4.37;;;1.10;;
71351;SDS011;59159;51.652;4.864;2022-09-09T12:21:45;4.60;;;1.00;;
71351;SDS011;59159;51.652;4.864;2022-09-09T12:24:17;3.75;;;0.80;;
71351;SDS011;59159;51.652;4.864;2022-09-09T12:26:57;5.18;;;1.10;;
71351;SDS011;59159;51.652;4.864;2022-09-09T12:29:27;4.67;;;1.10;;
71351;SDS011;59159;51.652;4.864;2022-09-09T12:36:49;3.97;;;0.90;;
71351;SDS011;59159;51.652;4.864;2022-09-09T12:39:27;4.25;;;0.90;;
71351;SDS011;59159;51.652;4.864;2022-09-09T12:41:55;5.50;;;0.85;;
71351;SDS011;59159;51.652;4.864;2022-09-09T12:44:24;3.37;;;0.87;;
71351;SDS011;59159;51.652;4.864;2022-09-09T12:46:52;4.50;;;0.80;;
71351;SDS011;59159;51.652;4.864;2022-09-09T12:52:00;6.00;;;1.10;;
71351;SDS011;59159;51.652;4.864;2022-09-09T12:54:26;3.27;;;0.80;;
71351;SDS011;59159;51.652;4.864;2022-09-09T12:56:53;3.95;;;0.80;;
71351;SDS011;59159;51.652;4.864;2022-09-09T12:59:40;3.47;;;0.88;;
71351;SDS011;59159;51.652;4.864;2022-09-09T13:02:16;3.73;;;0.90;;
71351;SDS011;59159;51.652;4.864;2022-09-09T13:04:43;5.30;;;0.80;;
71351;SDS011;59159;51.652;4.864;2022-09-09T13:07:11;4.78;;;0.77;;
71351;SDS011;59159;51.652;4.864;2022-09-09T13:09:38;3.00;;;0.80;;
71351;SDS011;59159;51.652;4.864;2022-09-09T13:12:05;4.25;;;0.73;;
71351;SDS011;59159;51.652;4.864;2022-09-09T13:14:34;3.80;;;0.68;;
71351;SDS011;59159;51.652;4.864;2022-09-09T13:17:03;4.03;;;0.80;;
71351;SDS011;59159;51.652;4.864;2022-09-09T13:19:31;3.40;;;0.80;;
71351;SDS011;59159;51.652;4.864;2022-09-09T13:21:58;4.40;;;0.77;;
71351;SDS011;59159;51.652;4.864;2022-09-09T13:24:31;4.68;;;1.48;;
71351;SDS011;59159;51.652;4.864;2022-09-09T13:26:59;2.80;;;0.67;;
71351;SDS011;59159;51.652;4.864;2022-09-09T13:29:29;3.88;;;0.80;;
71351;SDS011;59159;51.652;4.864;2022-09-09T13:32:04;3.08;;;0.80;;
71351;SDS011;59159;51.652;4.864;2022-09-09T13:34:34;10.43;;;1.00;;
71351;SDS011;59159;51.652;4.864;2022-09-09T13:37:01;5.88;;;0.85;;
71351;SDS011;59159;51.652;4.864;2022-09-09T13:39:28;5.18;;;1.02;;
71351;SDS011;59159;51.652;4.864;2022-09-09T13:41:54;3.92;;;0.90;;
71351;SDS011;59159;51.652;4.864;2022-09-09T13:44:21;6.13;;;1.17;;
71351;SDS011;59159;51.652;4.864;2022-09-09T13:46:58;5.97;;;0.98;;
71351;SDS011;59159;51.652;4.864;2022-09-09T13:49:25;4.65;;;1.33;;
71351;SDS011;59159;51.652;4.864;2022-09-09T13:52:02;4.97;;;1.07;;
71351;SDS011;59159;51.652;4.864;2022-09-09T13:54:28;3.58;;;1.25;;
71351;SDS011;59159;51.652;4.864;2022-09-09T13:56:55;5.10;;;0.90;;
71351;SDS011;59159;51.652;4.864;2022-09-09T13:59:21;5.73;;;1.00;;
71351;SDS011;59159;51.652;4.864;2022-09-09T14:01:49;3.78;;;0.80;;
71351;SDS011;59159;51.652;4.864;2022-09-09T14:04:17;5.57;;;0.90;;
71351;SDS011;59159;51.652;4.864;2022-09-09T14:06:45;3.80;;;0.90;;
71351;SDS011;59159;51.652;4.864;2022-09-09T14:09:13;4.23;;;0.70;;
71351;SDS011;59159;51.652;4.864;2022-09-09T14:11:40;5.03;;;0.80;;
71351;SDS011;59159;51.652;4.864;2022-09-09T14:14:06;4.85;;;0.80;;
71351;SDS011;59159;51.652;4.864;2022-09-09T14:16:32;3.63;;;0.90;;
71351;SDS011;59159;51.652;4.864;2022-09-09T14:18:58;4.47;;;0.93;;
71351;SDS011;59159;51.652;4.864;2022-09-09T14:21:24;4.40;;;0.82;;
71351;SDS011;59159;51.652;4.864;2022-09-09T14:23:50;4.53;;;0.90;;
71351;SDS011;59159;51.652;4.864;2022-09-09T14:26:17;2.72;;;0.75;;
71351;SDS011;59159;51.652;4.864;2022-09-09T14:28:46;3.45;;;0.80;;
71351;SDS011;59159;51.652;4.864;2022-09-09T14:31:12;4.18;;;0.88;;
71351;SDS011;59159;51.652;4.864;2022-09-09T14:33:42;4.53;;;0.93;;
71351;SDS011;59159;51.652;4.864;2022-09-09T14:36:08;4.32;;;1.23;;
71351;SDS011;59159;51.652;4.864;2022-09-09T14:38:35;3.42;;;1.38;;
71351;SDS011;59159;51.652;4.864;2022-09-09T14:41:05;3.87;;;0.83;;
71351;SDS011;59159;51.652;4.864;2022-09-09T14:43:31;6.50;;;1.00;;
71351;SDS011;59159;51.652;4.864;2022-09-09T14:46:03;6.72;;;1.10;;
71351;SDS011;59159;51.652;4.864;2022-09-09T14:48:30;4.83;;;0.90;;
71351;SDS011;59159;51.652;4.864;2022-09-09T14:50:56;4.05;;;0.90;;
71351;SDS011;59159;51.652;4.864;2022-09-09T14:53:23;7.60;;;1.10;;
71351;SDS011;59159;51.652;4.864;2022-09-09T14:55:51;4.93;;;1.02;;
71351;SDS011;59159;51.652;4.864;2022-09-09T14:58:17;5.50;;;1.03;;
71351;SDS011;59159;51.652;4.864;2022-09-09T15:00:43;6.85;;;2.47;;
71351;SDS011;59159;51.652;4.864;2022-09-09T15:03:09;5.32;;;1.15;;
71351;SDS011;59159;51.652;4.864;2022-09-09T15:05:35;4.60;;;1.30;;
71351;SDS011;59159;51.652;4.864;2022-09-09T15:08:02;5.25;;;1.00;;
71351;SDS011;59159;51.652;4.864;2022-09-09T15:10:28;5.50;;;1.10;;
71351;SDS011;59159;51.652;4.864;2022-09-09T15:12:56;5.33;;;1.03;;
71351;SDS011;59159;51.652;4.864;2022-09-09T15:15:22;5.18;;;1.30;;
71351;SDS011;59159;51.652;4.864;2022-09-09T15:17:48;7.05;;;1.58;;
71351;SDS011;59159;51.652;4.864;2022-09-09T15:20:14;5.68;;;1.25;;
71351;SDS011;59159;51.652;4.864;2022-09-09T15:22:41;7.33;;;1.70;;
71351;SDS011;59159;51.652;4.864;2022-09-09T15:25:07;8.27;;;1.50;;
71351;SDS011;59159;51.652;4.864;2022-09-09T15:27:33;6.40;;;1.50;;
71351;SDS011;59159;51.652;4.864;2022-09-09T15:29:59;4.03;;;1.10;;
71351;SDS011;59159;51.652;4.864;2022-09-09T15:32:25;6.45;;;1.05;;
71351;SDS011;59159;51.652;4.864;2022-09-09T15:34:51;5.38;;;1.10;;
71351;SDS011;59159;51.652;4.864;2022-09-09T15:37:18;8.00;;;1.40;;
71351;SDS011;59159;51.652;4.864;2022-09-09T15:39:44;5.93;;;1.70;;
71351;SDS011;59159;51.652;4.864;2022-09-09T15:42:10;4.32;;;1.35;;
71351;SDS011;59159;51.652;4.864;2022-09-09T15:44:42;5.38;;;1.90;;
71351;SDS011;59159;51.652;4.864;2022-09-09T15:47:10;8.83;;;1.67;;
71351;SDS011;59159;51.652;4.864;2022-09-09T15:49:37;5.68;;;1.73;;
71351;SDS011;59159;51.652;4.864;2022-09-09T15:52:05;6.15;;;2.33;;
71351;SDS011;59159;51.652;4.864;2022-09-09T15:54:32;6.70;;;1.77;;
71351;SDS011;59159;51.652;4.864;2022-09-09T15:57:00;5.95;;;1.48;;
71351;SDS011;59159;51.652;4.864;2022-09-09T15:59:27;5.30;;;1.50;;
71351;SDS011;59159;51.652;4.864;2022-09-09T16:01:53;6.73;;;2.23;;
71351;SDS011;59159;51.652;4.864;2022-09-09T16:04:20;5.15;;;1.60;;
71351;SDS011;59159;51.652;4.864;2022-09-09T16:06:52;5.32;;;1.48;;
71351;SDS011;59159;51.652;4.864;2022-09-09T16:09:19;5.60;;;1.52;;
71351;SDS011;59159;51.652;4.864;2022-09-09T16:11:46;6.93;;;1.73;;
71351;SDS011;59159;51.652;4.864;2022-09-09T16:14:12;7.63;;;1.33;;
71351;SDS011;59159;51.652;4.864;2022-09-09T16:16:40;6.65;;;1.52;;
71351;SDS011;59159;51.652;4.864;2022-09-09T16:19:07;5.87;;;1.10;;
71351;SDS011;59159;51.652;4.864;2022-09-09T16:21:35;4.50;;;1.10;;
71351;SDS011;59159;51.652;4.864;2022-09-09T16:24:02;6.55;;;1.00;;
71351;SDS011;59159;51.652;4.864;2022-09-09T16:26:30;7.30;;;1.43;;
71351;SDS011;59159;51.652;4.864;2022-09-09T16:28:56;6.13;;;1.08;;
71351;SDS011;59159;51.652;4.864;2022-09-09T16:31:24;6.93;;;1.48;;
71351;SDS011;59159;51.652;4.864;2022-09-09T16:33:50;5.18;;;1.52;;
71351;SDS011;59159;51.652;4.864;2022-09-09T16:36:17;7.13;;;1.20;;
71351;SDS011;59159;51.652;4.864;2022-09-09T16:38:44;3.17;;;1.10;;
71351;SDS011;59159;51.652;4.864;2022-09-09T16:41:10;3.58;;;1.00;;
71351;SDS011;59159;51.652;4.864;2022-09-09T16:43:37;4.90;;;1.10;;
71351;SDS011;59159;51.652;4.864;2022-09-09T16:46:03;5.82;;;1.27;;
71351;SDS011;59159;51.652;4.864;2022-09-09T16:48:36;5.82;;;1.30;;
71351;SDS011;59159;51.652;4.864;2022-09-09T16:51:06;3.77;;;1.13;;
71351;SDS011;59159;51.652;4.864;2022-09-09T16:53:33;5.75;;;1.27;;
71351;SDS011;59159;51.652;4.864;2022-09-09T16:56:04;4.78;;;1.05;;
71351;SDS011;59159;51.652;4.864;2022-09-09T16:58:31;3.60;;;1.00;;
71351;SDS011;59159;51.652;4.864;2022-09-09T17:01:00;5.83;;;1.40;;